Time;durP1;ratioP1;P1;durP2;ratioP2;P2;SDS_P1;SDS_P2;PMS_P1;PMS_P2;Temp;Humidity;BMP_temperature;BMP_pressure;BME280_temperature;BME280_humidity;BME280_pressure;Samples;Min_cycle;Max_cycle;Signal;HPM_P1;HPM_P2
2022/09/02 00:00:35;;;;;;;13.00;10.93;;;;;;;19.19;72.75;94506.31;5132558;27;20031;-77
2022/09/02 00:03:00;;;;;;;12.90;11.43;;;;;;;19.23;72.80;94523.38;5098277;27;20031;-77
2022/09/02 00:05:26;;;;;;;13.20;11.32;;;;;;;19.20;72.59;94516.66;5132106;27;20459;-77
2022/09/02 00:07:51;;;;;;;12.75;10.77;;;;;;;19.10;72.66;94516.16;5132444;27;20027;-77
2022/09/02 00:10:17;;;;;;;12.93;11.60;;;;;;;19.13;72.67;94509.69;5115275;27;20067;-77
2022/09/02 00:12:42;;;;;;;13.73;10.98;;;;;;;18.98;72.58;94491.31;5133404;27;20468;-77
2022/09/02 00:15:08;;;;;;;13.20;11.13;;;;;;;19.10;72.45;94508.25;5132229;27;20034;-77
2022/09/02 00:17:34;;;;;;;13.15;11.27;;;;;;;19.12;72.87;94513.34;5111741;28;20020;-77
2022/09/02 00:19:59;;;;;;;12.85;11.43;;;;;;;19.09;73.54;94517.16;5077777;28;20462;-77
2022/09/02 00:22:25;;;;;;;12.20;10.98;;;;;;;19.01;73.40;94501.47;5111585;28;20027;-77
2022/09/02 00:24:50;;;;;;;12.38;11.07;;;;;;;19.00;73.55;94505.13;5119155;27;20035;-78
2022/09/02 00:27:16;;;;;;;12.43;10.77;;;;;;;19.08;73.53;94515.50;5135349;27;20027;-78
2022/09/02 00:29:41;;;;;;;13.73;11.70;;;;;;;19.05;73.55;94518.50;5135335;27;20447;-77
2022/09/02 00:32:07;;;;;;;14.10;11.88;;;;;;;18.95;73.30;94507.50;5135247;27;20081;-78
2022/09/02 00:34:32;;;;;;;13.95;12.30;;;;;;;19.02;73.51;94524.16;5152728;27;20045;-77
2022/09/02 00:36:58;;;;;;;14.88;12.13;;;;;;;19.02;74.03;94518.88;5118049;27;20027;-77
2022/09/02 00:39:23;;;;;;;12.30;11.02;;;;;;;19.03;74.37;94523.16;5135382;27;20400;-77
2022/09/02 00:41:49;;;;;;;12.50;11.20;;;;;;;18.99;74.56;94524.53;5135228;27;20041;-77
2022/09/02 00:44:16;;;;;;;14.10;11.15;;;;;;;19.03;74.89;94544.22;5152313;27;20419;-77
2022/09/02 00:46:41;;;;;;;12.95;11.65;;;;;;;19.04;74.80;94540.59;5117790;27;20050;-77
2022/09/02 00:49:24;;;;;;;12.88;11.52;;;;;;;19.01;74.83;94533.06;5135028;27;20514;-77
2022/09/02 00:52:12;;;;;;;13.02;11.68;;;;;;;19.01;74.79;94537.53;5136984;27;20047;-77
2022/09/02 00:54:45;;;;;;;13.98;11.80;;;;;;;19.01;74.47;94540.97;5152465;27;20041;-77
2022/09/02 00:57:14;;;;;;;14.38;12.95;;;;;;;18.99;73.98;94537.69;5135065;27;20083;-78
2022/09/02 00:59:55;;;;;;;14.38;12.98;;;;;;;18.95;73.86;94525.91;5152312;27;20022;-77
2022/09/02 01:02:24;;;;;;;14.50;12.43;;;;;;;18.97;74.29;94529.16;5152054;27;20034;-78
2022/09/02 01:04:49;;;;;;;13.73;12.15;;;;;;;18.95;74.37;94539.06;5135355;27;20580;-78
2022/09/02 01:07:15;;;;;;;13.35;11.95;;;;;;;18.91;74.60;94529.91;5151939;27;20023;-77
2022/09/02 01:09:40;;;;;;;13.68;12.30;;;;;;;18.84;74.35;94514.03;5117698;27;20031;-77
2022/09/02 01:12:06;;;;;;;14.73;12.75;;;;;;;18.95;74.24;94533.81;5153050;27;20103;-77
2022/09/02 01:14:33;;;;;;;17.65;12.70;;;;;;;18.92;74.74;94528.91;5134767;27;20042;-77
2022/09/02 01:17:00;;;;;;;14.48;12.77;;;;;;;18.82;74.94;94517.84;5134164;27;20377;-78
2022/09/02 01:19:38;;;;;;;15.88;13.45;;;;;;;18.83;75.08;94517.66;5134485;27;20031;-78
2022/09/02 01:22:25;;;;;;;13.48;11.98;;;;;;;18.89;75.21;94524.03;5118122;27;20030;-78
2022/09/02 01:24:50;;;;;;;14.02;12.50;;;;;;;18.88;75.09;94523.19;5149327;27;20031;-77
2022/09/02 01:27:17;;;;;;;14.98;13.20;;;;;;;18.87;75.06;94520.75;5096713;27;20034;-78
2022/09/02 01:29:43;;;;;;;15.18;13.68;;;;;;;18.91;74.73;94522.81;5114060;27;20042;-77
2022/09/02 01:32:09;;;;;;;14.85;13.30;;;;;;;18.87;74.39;94518.13;5130901;27;20019;-77
2022/09/02 01:34:34;;;;;;;15.45;13.05;;;;;;;18.92;74.14;94526.28;5097017;27;20031;-78
2022/09/02 01:37:00;;;;;;;14.63;13.15;;;;;;;18.88;73.24;94531.09;5130675;27;20087;-77
2022/09/02 01:39:25;;;;;;;14.80;13.27;;;;;;;18.88;72.74;94530.28;5113862;27;20038;-77
2022/09/02 01:41:51;;;;;;;15.02;13.30;;;;;;;18.85;72.30;94515.66;5113598;28;20095;-78
2022/09/02 01:44:16;;;;;;;14.68;13.25;;;;;;;18.92;72.42;94523.66;5113956;27;20051;-78
2022/09/02 01:46:43;;;;;;;14.18;12.68;;;;;;;18.98;72.43;94517.66;5130515;27;20057;-78
2022/09/02 01:49:09;;;;;;;13.70;12.35;;;;;;;18.98;72.61;94521.09;5096660;27;20027;-78
2022/09/02 01:51:35;;;;;;;14.93;13.43;;;;;;;18.89;72.77;94503.78;5096589;28;20476;-78
2022/09/02 01:54:00;;;;;;;14.25;12.80;;;;;;;18.87;73.49;94483.91;5130684;28;20057;-78
2022/09/02 01:56:26;;;;;;;14.82;13.20;;;;;;;18.95;72.90;94504.84;5130643;28;20039;-77
2022/09/02 01:58:51;;;;;;;14.45;12.60;;;;;;;19.01;72.52;94503.31;5130671;28;20023;-77
2022/09/02 02:01:17;;;;;;;14.95;13.35;;;;;;;18.87;72.47;94481.28;5113611;28;20432;-78
2022/09/02 02:03:42;;;;;;;13.48;12.27;;;;;;;18.97;73.41;94493.16;5130586;28;20023;-77
2022/09/02 02:06:10;;;;;;;15.32;12.43;;;;;;;18.89;73.04;94489.81;5130587;28;20358;-78
2022/09/02 02:08:36;;;;;;;15.48;12.68;;;;;;;18.92;72.62;94497.34;5096834;28;20055;-77
2022/09/02 02:11:01;;;;;;;13.48;12.05;;;;;;;18.90;72.82;94497.50;5096612;28;20092;-77
2022/09/02 02:13:27;;;;;;;17.48;12.93;;;;;;;18.89;73.08;94487.19;5096349;28;20019;-77
2022/09/02 02:15:52;;;;;;;13.35;12.05;;;;;;;18.89;72.93;94500.34;5113377;28;20189;-77
2022/09/02 02:18:18;;;;;;;15.05;12.00;;;;;;;18.90;72.88;94499.34;5131788;27;20026;-78
2022/09/02 02:20:43;;;;;;;13.00;11.60;;;;;;;18.89;72.49;94500.34;5096558;28;20050;-78
2022/09/02 02:23:09;;;;;;;12.63;11.27;;;;;;;18.87;72.69;94502.34;5130273;28;20023;-78
2022/09/02 02:25:34;;;;;;;14.45;12.02;;;;;;;18.80;72.52;94493.53;5106029;27;20091;-77
2022/09/02 02:28:00;;;;;;;14.77;11.23;;;;;;;18.80;72.79;94490.91;5136295;27;20045;-77
2022/09/02 02:30:25;;;;;;;12.82;11.10;;;;;;;18.88;73.53;94506.59;5155070;27;20035;-78
2022/09/02 02:32:51;;;;;;;13.13;11.82;;;;;;;18.84;73.69;94500.88;5120725;27;20030;-78
2022/09/02 02:35:17;;;;;;;16.30;11.40;;;;;;;18.78;72.98;94488.47;5137622;27;20504;-78
2022/09/02 02:37:44;;;;;;;12.73;11.32;;;;;;;18.77;73.60;94488.66;5120577;27;20019;-77
2022/09/02 02:40:10;;;;;;;12.75;11.45;;;;;;;18.79;73.50;94494.56;5137810;27;20038;-78
2022/09/02 02:42:36;;;;;;;14.52;11.55;;;;;;;18.84;74.13;94502.72;5154473;27;20080;-77
2022/09/02 02:45:02;;;;;;;13.57;12.20;;;;;;;18.85;73.89;94506.97;5137524;27;20047;-77
2022/09/02 02:47:27;;;;;;;12.82;11.40;;;;;;;18.81;74.10;94500.44;5154735;27;20023;-78
2022/09/02 02:49:53;;;;;;;13.15;11.75;;;;;;;18.85;74.18;94509.59;5137528;27;20026;-78
2022/09/02 02:52:18;;;;;;;12.60;11.30;;;;;;;18.77;74.28;94502.63;5154655;27;20031;-77
2022/09/02 02:54:44;;;;;;;14.50;12.32;;;;;;;18.77;74.43;94504.44;5154744;27;20068;-77
2022/09/02 02:57:09;;;;;;;13.40;12.10;;;;;;;18.77;74.63;94505.25;5155771;27;20045;-78
2022/09/02 02:59:35;;;;;;;13.00;11.75;;;;;;;18.75;74.67;94512.53;5137310;27;20415;-78
2022/09/02 03:02:01;;;;;;;12.70;11.40;;;;;;;18.76;74.94;94519.41;5154363;27;20027;-78
2022/09/02 03:04:27;;;;;;;12.90;11.70;;;;;;;18.71;75.20;94512.03;5137338;27;20035;-77
2022/09/02 03:06:52;;;;;;;13.60;12.30;;;;;;;18.77;75.47;94518.41;5119906;27;20126;-78
2022/09/02 03:09:19;;;;;;;13.65;12.25;;;;;;;18.78;75.31;94517.44;5137220;27;20526;-78
2022/09/02 03:11:45;;;;;;;13.88;11.43;;;;;;;18.68;75.39;94506.34;5120155;27;20033;-78
2022/09/02 03:14:10;;;;;;;12.95;11.70;;;;;;;18.77;75.46;94512.34;5154061;27;20018;-78
2022/09/02 03:16:36;;;;;;;12.05;10.77;;;;;;;18.82;74.27;94509.97;5154219;27;20041;-77
2022/09/02 03:19:02;;;;;;;11.77;10.60;;;;;;;18.72;74.79;94503.16;5119903;27;20030;-77
2022/09/02 03:21:27;;;;;;;10.63;8.73;;;;;;;18.64;73.84;94498.00;5136927;27;20026;-78
2022/09/02 03:23:52;;;;;;;9.32;8.30;;;;;;;18.50;74.09;94493.59;5153968;27;20026;-78
2022/09/02 03:26:22;;;;;;;10.05;8.60;;;;;;;18.58;74.49;94506.59;5116999;27;20522;-78
2022/09/02 03:28:48;;;;;;;9.40;8.50;;;;;;;18.53;74.19;94495.84;5095774;28;20084;-78
2022/09/02 03:31:15;;;;;;;10.07;7.88;;;;;;;18.57;74.34;94504.16;5095737;28;20489;-78
2022/09/02 03:33:41;;;;;;;8.98;7.82;;;;;;;18.61;73.07;94505.41;5095873;28;20023;-78
2022/09/02 03:36:06;;;;;;;7.88;6.75;;;;;;;18.66;72.66;94516.22;5095664;28;20043;-78
2022/09/02 03:38:34;;;;;;;7.32;6.63;;;;;;;18.62;72.87;94518.41;5113052;28;20020;-77
2022/09/02 03:40:59;;;;;;;7.63;6.65;;;;;;;18.58;72.78;94511.88;5112422;28;20036;-77
2022/09/02 03:43:25;;;;;;;7.50;6.68;;;;;;;18.60;72.56;94512.50;5113510;28;20040;-77
2022/09/02 03:45:50;;;;;;;7.38;6.60;;;;;;;18.63;72.45;94520.03;5112274;28;20034;-78
2022/09/02 03:48:16;;;;;;;7.32;6.63;;;;;;;18.55;72.70;94520.13;5113590;28;20036;-77
2022/09/02 03:50:43;;;;;;;7.07;6.22;;;;;;;18.55;72.73;94522.75;5095424;28;20463;-77
2022/09/02 03:53:08;;;;;;;7.40;6.70;;;;;;;18.59;72.69;94531.13;5095341;28;20141;-78
2022/09/02 03:55:35;;;;;;;7.88;6.40;;;;;;;18.51;72.36;94530.19;5095338;28;20114;-77
2022/09/02 03:58:01;;;;;;;7.13;6.43;;;;;;;18.50;72.52;94546.19;5095140;28;20036;-78
2022/09/02 04:00:30;;;;;;;7.70;6.90;;;;;;;18.30;72.79;94517.81;5112162;28;20027;-78
2022/09/02 04:02:56;;;;;;;9.93;7.22;;;;;;;18.31;73.18;94529.94;5095668;28;20031;-77
2022/09/02 04:05:22;;;;;;;7.13;6.25;;;;;;;18.35;73.27;94547.97;5095129;28;20055;-78
2022/09/02 04:07:50;;;;;;;7.57;6.88;;;;;;;18.33;73.43;94545.56;5111920;28;20031;-77
2022/09/02 04:10:16;;;;;;;8.00;6.72;;;;;;;18.29;73.77;94546.88;5095353;28;20032;-77
2022/09/02 04:12:41;;;;;;;7.47;6.78;;;;;;;18.31;74.18;94552.78;5112966;28;20070;-78
2022/09/02 04:15:08;;;;;;;7.60;6.82;;;;;;;18.20;74.47;94533.03;5116042;27;20416;-78
2022/09/02 04:17:37;;;;;;;7.40;6.70;;;;;;;18.30;74.57;94551.13;5114097;27;20023;-77
2022/09/02 04:20:07;;;;;;;7.90;7.07;;;;;;;18.22;75.03;94554.69;5115214;27;20084;-77
2022/09/02 04:22:32;;;;;;;6.57;5.97;;;;;;;18.31;74.97;94560.69;5133560;27;20131;-78
2022/09/02 04:24:58;;;;;;;8.25;7.03;;;;;;;18.36;74.90;94570.63;5114861;27;20143;-78
2022/09/02 04:27:23;;;;;;;7.90;7.10;;;;;;;18.40;74.80;94571.94;5119884;27;20023;-78
2022/09/02 04:29:49;;;;;;;7.65;6.70;;;;;;;18.33;74.98;94558.69;5098133;27;20568;-78
2022/09/02 04:32:14;;;;;;;7.47;6.78;;;;;;;18.41;75.03;94568.28;5128521;27;20050;-78
2022/09/02 04:34:40;;;;;;;8.57;7.05;;;;;;;18.45;74.93;94572.19;5125400;27;20020;-78
2022/09/02 04:37:05;;;;;;;7.15;6.45;;;;;;;18.43;75.17;94571.56;5127517;27;20039;-78
2022/09/02 04:39:31;;;;;;;8.20;6.95;;;;;;;18.47;75.31;94580.72;5128561;27;20133;-79
2022/09/02 04:41:56;;;;;;;6.90;6.28;;;;;;;18.49;75.27;94576.09;5121539;27;20043;-79
2022/09/02 04:44:22;;;;;;;8.52;6.85;;;;;;;18.54;75.31;94587.69;5099287;27;20615;-79
2022/09/02 04:46:47;;;;;;;9.50;6.78;;;;;;;18.58;75.27;94590.78;5129102;27;20035;-77
2022/09/02 04:49:13;;;;;;;7.60;6.72;;;;;;;18.59;75.13;94581.91;5114613;27;20030;-79
2022/09/02 04:51:38;;;;;;;7.68;6.97;;;;;;;18.59;75.13;94581.09;5128479;27;20465;-77
2022/09/02 04:54:04;;;;;;;7.93;7.10;;;;;;;18.60;75.28;94582.72;5085495;28;20032;-77
2022/09/02 04:56:31;;;;;;;7.43;6.72;;;;;;;18.64;75.42;94584.81;5118213;27;20035;-78
2022/09/02 04:58:56;;;;;;;7.82;6.85;;;;;;;18.66;75.55;94585.41;5116421;27;20067;-77
2022/09/02 05:01:27;;;;;;;7.63;6.93;;;;;;;18.68;75.64;94590.50;5122034;27;20063;-78
2022/09/02 05:03:53;;;;;;;7.45;6.70;;;;;;;18.64;75.59;94584.81;5113476;27;20039;-78
2022/09/02 05:06:21;;;;;;;8.20;7.28;;;;;;;18.67;75.51;94587.06;5122850;27;20039;-79
2022/09/02 05:08:49;;;;;;;7.70;6.93;;;;;;;18.67;75.27;94596.78;5109457;27;20118;-78
2022/09/02 05:11:22;;;;;;;7.95;6.65;;;;;;;18.62;75.03;94583.34;5116818;27;20246;-78
2022/09/02 05:13:50;;;;;;;7.80;7.00;;;;;;;18.66;75.05;94588.06;5125131;27;20156;-78
2022/09/02 05:16:16;;;;;;;8.60;7.45;;;;;;;18.66;74.56;94585.41;5107102;27;20034;-78
2022/09/02 05:18:42;;;;;;;7.82;7.10;;;;;;;18.70;74.66;94586.72;5119924;27;20058;-78
2022/09/02 05:21:08;;;;;;;9.40;7.78;;;;;;;18.71;74.58;94590.97;5110229;28;20478;-77
2022/09/02 05:23:33;;;;;;;8.77;7.45;;;;;;;18.73;74.34;94594.22;5140306;27;20033;-78
2022/09/02 05:26:03;;;;;;;8.27;7.50;;;;;;;18.72;73.91;94591.78;5134460;27;20023;-78
2022/09/02 05:28:28;;;;;;;8.45;7.57;;;;;;;18.74;73.73;94590.63;5113847;27;20043;-78
2022/09/02 05:30:54;;;;;;;8.75;7.85;;;;;;;18.74;73.76;94589.81;5113890;28;20027;-78
2022/09/02 05:33:21;;;;;;;9.63;7.47;;;;;;;18.77;73.73;94593.91;5108664;28;20036;-78
2022/09/02 05:35:47;;;;;;;10.43;8.10;;;;;;;18.82;73.44;94596.81;5139860;27;20019;-78
2022/09/02 05:38:13;;;;;;;8.40;7.50;;;;;;;18.74;73.38;94590.63;5150634;27;20395;-78
2022/09/02 05:40:39;;;;;;;8.50;7.10;;;;;;;18.79;73.38;94597.16;5149373;27;20408;-78
2022/09/02 05:43:05;;;;;;;8.20;7.43;;;;;;;18.87;73.42;94597.06;5149065;27;20122;-78
2022/09/02 05:45:30;;;;;;;7.97;7.20;;;;;;;18.89;73.18;94590.63;5139019;27;20031;-78
2022/09/02 05:47:55;;;;;;;8.40;6.88;;;;;;;18.93;73.16;94588.44;5129368;27;20088;-78
2022/09/02 05:50:21;;;;;;;8.05;7.15;;;;;;;18.99;73.14;94592.97;5130805;27;20428;-78
2022/09/02 05:52:49;;;;;;;7.53;6.63;;;;;;;19.08;73.09;94585.78;5131824;27;20027;-77
2022/09/02 05:55:15;;;;;;;8.60;7.40;;;;;;;19.12;72.63;94582.59;5113622;28;20030;-78
2022/09/02 05:57:42;;;;;;;9.32;6.93;;;;;;;19.20;71.96;94585.13;5096311;28;20027;-78
2022/09/02 06:00:08;;;;;;;7.43;6.72;;;;;;;19.12;71.39;94577.34;5130458;28;20049;-78
2022/09/02 06:02:33;;;;;;;7.32;6.63;;;;;;;19.26;71.27;94594.09;5098371;27;20031;-78
2022/09/02 06:04:59;;;;;;;7.20;6.50;;;;;;;19.35;69.94;94587.69;5135994;27;20034;-78
2022/09/02 06:07:25;;;;;;;7.20;6.50;;;;;;;19.31;70.56;94578.56;5134768;27;20030;-78
2022/09/02 06:09:51;;;;;;;6.32;5.70;;;;;;;19.37;70.23;94584.91;5133294;27;20035;-78
2022/09/02 06:12:19;;;;;;;7.65;5.40;;;;;;;19.31;69.73;94570.66;5115830;27;20038;-78
2022/09/02 06:14:45;;;;;;;7.50;6.20;;;;;;;19.41;69.97;94580.88;5101083;27;20435;-78
2022/09/02 06:17:11;;;;;;;6.95;6.15;;;;;;;19.51;70.19;94586.66;5108469;27;20079;-78
2022/09/02 06:19:36;;;;;;;6.50;5.80;;;;;;;19.47;69.45;94589.84;5130672;27;20582;-78
2022/09/02 06:22:02;;;;;;;6.32;5.72;;;;;;;19.52;68.79;94593.53;5117724;27;20019;-78
2022/09/02 06:24:28;;;;;;;7.97;6.20;;;;;;;19.58;68.96;94598.06;5117464;27;20043;-78
2022/09/02 06:26:53;;;;;;;6.40;5.63;;;;;;;19.60;68.24;94593.44;5117352;27;20023;-78
2022/09/02 06:29:19;;;;;;;6.30;5.70;;;;;;;19.67;68.87;94595.34;5134608;27;20064;-78
2022/09/02 06:31:46;;;;;;;7.50;5.80;;;;;;;19.70;69.21;94589.72;5117066;27;20019;-78
2022/09/02 06:34:13;;;;;;;6.63;6.03;;;;;;;19.76;69.42;94599.50;5119688;27;20077;-78
2022/09/02 06:36:39;;;;;;;6.80;6.18;;;;;;;19.80;68.91;94596.28;5119980;27;20624;-78
2022/09/02 06:39:04;;;;;;;7.32;5.85;;;;;;;19.81;68.36;94591.84;5101536;27;20039;-78
2022/09/02 06:41:32;;;;;;;6.80;5.97;;;;;;;19.88;68.60;94597.97;5125988;27;20030;-78
2022/09/02 06:44:00;;;;;;;11.07;6.25;;;;;;;19.96;69.33;94595.22;5116163;27;20055;-78
2022/09/02 06:46:28;;;;;;;7.43;6.72;;;;;;;19.96;68.39;94600.47;5101905;28;20031;-78
2022/09/02 06:48:53;;;;;;;7.15;5.53;;;;;;;19.90;66.61;94593.34;5096497;28;20035;-78
2022/09/02 06:51:30;;;;;;;6.65;5.78;;;;;;;19.99;66.73;94610.66;5113639;28;20047;-78
2022/09/02 06:53:55;;;;;;;6.63;5.85;;;;;;;20.04;66.84;94605.63;5114447;27;20481;-78
2022/09/02 06:56:21;;;;;;;7.10;6.05;;;;;;;20.08;66.97;94608.69;5132192;27;20027;-78
2022/09/02 06:58:46;;;;;;;6.80;5.82;;;;;;;20.14;67.91;94607.09;5133824;27;20039;-78
2022/09/02 07:01:18;;;;;;;7.43;6.30;;;;;;;20.23;68.25;94605.97;5133795;27;20045;-79
2022/09/02 07:06:28;;;;;;;6.82;5.90;;;;;;;20.20;67.94;94599.28;5133923;27;20042;-78
2022/09/02 07:08:53;;;;;;;6.80;5.63;;;;;;;20.29;66.77;94607.84;5116331;27;20408;-78
2022/09/02 07:11:20;;;;;;;6.70;5.90;;;;;;;20.30;67.11;94617.38;5116568;27;20062;-79
2022/09/02 07:13:46;;;;;;;6.75;5.75;;;;;;;20.23;66.87;94596.25;5132390;27;20027;-78
2022/09/02 07:16:12;;;;;;;6.85;6.15;;;;;;;20.35;66.94;94614.19;5116463;27;20446;-79
2022/09/02 07:18:37;;;;;;;6.00;5.40;;;;;;;20.24;67.62;94597.06;5099439;27;20053;-78
2022/09/02 07:21:03;;;;;;;7.00;6.30;;;;;;;20.43;67.61;94617.47;5133402;27;20023;-79
2022/09/02 07:23:28;;;;;;;6.78;6.13;;;;;;;20.46;66.80;94616.28;5134698;27;20044;-78
2022/09/02 07:25:54;;;;;;;8.70;6.43;;;;;;;20.46;66.69;94617.09;5116127;27;20035;-78
2022/09/02 07:28:21;;;;;;;12.10;8.63;;;;;;;20.47;66.67;94618.72;5099142;27;20393;-78
2022/09/02 07:30:46;;;;;;;10.70;7.95;;;;;;;20.50;67.60;94622.78;5116279;27;20035;-78
2022/09/02 07:33:12;;;;;;;9.80;7.82;;;;;;;20.47;66.88;94618.72;5133052;27;20073;-78
2022/09/02 07:35:41;;;;;;;7.53;6.60;;;;;;;20.43;67.11;94614.84;5133124;27;20024;-78
2022/09/02 07:38:08;;;;;;;8.95;7.22;;;;;;;20.44;67.94;94621.75;5099203;27;20122;-79
2022/09/02 07:40:35;;;;;;;11.20;6.72;;;;;;;20.54;67.14;94634.63;5116175;27;20027;-78
2022/09/02 07:43:02;;;;;;;8.02;6.80;;;;;;;20.49;68.49;94627.25;5115750;27;20039;-78
2022/09/02 07:45:28;;;;;;;7.05;6.18;;;;;;;20.52;68.24;94626.88;5115789;27;20439;-78
2022/09/02 07:47:54;;;;;;;6.95;5.97;;;;;;;20.56;66.70;94627.34;5098662;27;20477;-78
2022/09/02 07:50:19;;;;;;;6.45;5.57;;;;;;;20.58;66.42;94627.16;5098728;27;20027;-78
2022/09/02 07:52:45;;;;;;;5.90;5.07;;;;;;;20.45;64.63;94604.13;5115526;27;20492;-78
2022/09/02 07:55:10;;;;;;;5.65;5.13;;;;;;;20.52;63.93;94624.22;5133967;27;20019;-78
2022/09/02 07:57:36;;;;;;;5.93;5.20;;;;;;;20.55;65.94;94625.69;5115575;27;20106;-78
2022/09/02 08:00:03;;;;;;;8.32;6.22;;;;;;;20.57;65.66;94638.72;5098460;27;20468;-79
2022/09/02 08:02:29;;;;;;;5.88;5.28;;;;;;;20.55;65.39;94638.09;5115464;27;20031;-78
2022/09/02 08:04:54;;;;;;;5.90;5.15;;;;;;;20.55;64.94;94635.44;5098254;27;20068;-79
2022/09/02 08:07:23;;;;;;;5.75;5.22;;;;;;;20.53;64.95;94640.91;5115287;27;20027;-78
2022/09/02 08:09:50;;;;;;;6.25;5.65;;;;;;;20.53;64.65;94636.47;5115709;27;20031;-79
2022/09/02 08:12:15;;;;;;;5.78;5.18;;;;;;;20.58;65.60;94637.69;5132671;27;20234;-79
2022/09/02 08:14:41;;;;;;;6.05;5.45;;;;;;;20.52;65.27;94632.16;5115405;27;20063;-78
2022/09/02 08:17:07;;;;;;;7.38;5.45;;;;;;;20.61;65.51;94645.22;5098058;27;20503;-78
2022/09/02 08:19:33;;;;;;;6.60;6.00;;;;;;;20.63;65.37;94645.84;5132582;27;20035;-78
2022/09/02 08:22:08;;;;;;;5.95;5.32;;;;;;;20.63;66.14;94649.31;5097972;27;20034;-79
2022/09/02 08:24:34;;;;;;;6.13;5.53;;;;;;;20.57;65.82;94638.72;5115771;27;20035;-78
2022/09/02 08:27:00;;;;;;;7.72;5.88;;;;;;;20.61;65.55;94640.75;5132060;27;20037;-78
2022/09/02 08:29:25;;;;;;;7.28;5.63;;;;;;;20.68;65.05;94646.91;5115164;27;20114;-78
2022/09/02 08:31:51;;;;;;;6.07;5.40;;;;;;;20.68;64.59;94635.53;5114970;27;20076;-79
2022/09/02 08:34:16;;;;;;;6.95;5.90;;;;;;;20.70;66.08;94633.53;5132168;27;20035;-79
2022/09/02 08:36:42;;;;;;;7.05;5.90;;;;;;;20.65;65.42;94628.81;5114823;27;20508;-78
2022/09/02 08:39:08;;;;;;;6.43;5.38;;;;;;;20.74;64.58;94637.41;5133289;27;20083;-79
2022/09/02 08:41:40;;;;;;;6.25;5.45;;;;;;;20.76;63.62;94648.59;5097669;27;20027;-78
2022/09/02 08:44:05;;;;;;;8.35;6.07;;;;;;;20.75;63.97;94636.38;5131430;27;20134;-78
2022/09/02 08:46:31;;;;;;;6.20;5.60;;;;;;;20.71;63.68;94627.22;5131751;27;20031;-79
2022/09/02 08:49:24;;;;;;;7.07;6.35;;;;;;;20.82;64.22;94629.31;5114665;27;20480;-79
2022/09/02 08:51:56;;;;;;;7.15;6.45;;;;;;;20.87;64.69;94629.56;5114490;27;20038;-79
2022/09/02 08:54:27;;;;;;;7.38;6.68;;;;;;;20.93;64.77;94633.25;5131795;27;20035;-79
2022/09/02 08:56:52;;;;;;;9.05;7.10;;;;;;;20.87;64.03;94632.22;5131473;27;20166;-78
2022/09/02 08:59:20;;;;;;;8.82;6.95;;;;;;;20.78;64.90;94624.63;5097469;27;20731;-78
2022/09/02 09:02:01;;;;;;;7.72;6.85;;;;;;;20.89;65.77;94638.09;5114450;27;20523;-78
2022/09/02 09:05:05;;;;;;;7.45;6.65;;;;;;;20.95;65.51;94631.25;5132976;27;20030;-79
2022/09/02 09:07:33;;;;;;;7.88;6.72;;;;;;;21.00;64.85;94628.00;5114412;27;20029;-79
2022/09/02 09:10:10;;;;;;;7.55;6.75;;;;;;;21.04;64.55;94629.25;5132464;27;20175;-79
2022/09/02 09:12:38;;;;;;;8.40;7.38;;;;;;;21.05;64.83;94621.13;5131244;27;20030;-78
2022/09/02 09:15:18;;;;;;;7.95;6.88;;;;;;;21.07;64.55;94623.56;5132392;27;20090;-78
2022/09/02 09:17:47;;;;;;;9.52;7.38;;;;;;;21.11;64.10;94632.72;5130990;27;20030;-79
2022/09/02 09:20:19;;;;;;;8.60;6.85;;;;;;;21.12;63.92;94616.69;5131298;27;20035;-78
2022/09/02 09:22:44;;;;;;;8.00;6.85;;;;;;;21.13;63.85;94609.56;5114287;27;20511;-79
2022/09/02 09:25:12;;;;;;;8.43;7.43;;;;;;;21.21;63.91;94619.97;5096997;27;20031;-79
2022/09/02 09:27:38;;;;;;;8.60;7.70;;;;;;;21.26;63.63;94619.38;5114340;28;20030;-79
2022/09/02 09:30:06;;;;;;;9.32;8.20;;;;;;;21.32;63.49;94616.75;5130976;27;20416;-78
2022/09/02 09:32:37;;;;;;;12.90;8.73;;;;;;;21.40;64.31;94615.81;5130896;27;20019;-78
2022/09/02 09:35:13;;;;;;;11.20;8.27;;;;;;;21.45;64.90;94609.91;5130891;27;20059;-78
2022/09/02 09:37:40;;;;;;;9.55;8.30;;;;;;;21.54;64.55;94609.53;5130247;27;20095;-78
2022/09/02 09:40:20;;;;;;;10.38;8.80;;;;;;;21.60;63.33;94608.75;5096788;27;20027;-78
2022/09/02 09:43:01;;;;;;;11.07;8.75;;;;;;;21.66;62.82;94604.47;5130499;27;20092;-79
2022/09/02 09:45:34;;;;;;;11.00;9.68;;;;;;;21.78;62.51;94600.22;5114364;27;20038;-78
2022/09/02 09:48:15;;;;;;;11.45;10.35;;;;;;;21.90;62.08;94602.28;5097326;27;20023;-78
2022/09/02 09:50:44;;;;;;;10.98;9.77;;;;;;;21.94;60.61;94601.69;5132048;27;20088;-79
2022/09/02 09:53:17;;;;;;;12.45;10.63;;;;;;;21.77;61.16;94595.97;5114092;28;20039;-79
2022/09/02 09:56:05;;;;;;;13.15;11.90;;;;;;;21.64;61.60;94595.94;5114427;28;20031;-78
2022/09/02 09:58:35;;;;;;;16.35;13.15;;;;;;;21.64;61.75;94588.00;5130832;28;20106;-79
2022/09/02 10:01:16;;;;;;;13.20;11.70;;;;;;;21.71;62.70;94612.63;5130604;28;20035;-78
2022/09/02 10:03:57;;;;;;;14.65;12.95;;;;;;;21.76;62.72;94618.13;5132072;27;20051;-78
2022/09/02 10:06:34;;;;;;;14.90;13.07;;;;;;;21.76;62.40;94607.56;5130839;28;20046;-78
2022/09/02 10:09:00;;;;;;;13.63;12.23;;;;;;;21.83;62.33;94610.22;5131619;27;20107;-78
2022/09/02 10:11:27;;;;;;;13.32;11.82;;;;;;;21.88;62.14;94609.63;5130532;28;20028;-78
2022/09/02 10:13:59;;;;;;;12.63;11.32;;;;;;;21.89;62.54;94596.19;5131843;27;20503;-78
2022/09/02 10:16:27;;;;;;;11.90;10.70;;;;;;;22.09;62.60;94607.59;5096523;28;20416;-78
2022/09/02 10:18:55;;;;;;;11.60;10.40;;;;;;;22.16;62.07;94604.94;5130369;27;20039;-78
2022/09/02 10:21:30;;;;;;;12.32;11.13;;;;;;;22.19;61.58;94593.19;5113506;28;20023;-78
2022/09/02 10:24:13;;;;;;;12.40;10.45;;;;;;;22.35;61.49;94602.53;5130355;27;20019;-79
2022/09/02 10:26:49;;;;;;;12.80;10.55;;;;;;;22.42;60.61;94606.78;5131546;27;20110;-78
2022/09/02 10:29:21;;;;;;;11.93;10.75;;;;;;;22.37;60.58;94603.97;5113362;28;20450;-79
2022/09/02 10:32:05;;;;;;;13.88;10.88;;;;;;;22.39;60.70;94596.59;5131503;27;20037;-78
2022/09/02 10:34:39;;;;;;;11.75;10.55;;;;;;;22.45;60.38;94602.91;5131884;27;20035;-79
2022/09/02 10:37:18;;;;;;;13.05;10.88;;;;;;;22.57;59.13;94598.66;5131397;27;20042;-79
2022/09/02 10:39:55;;;;;;;11.65;10.43;;;;;;;22.43;59.88;94597.84;5114307;28;20035;-78
2022/09/02 10:42:26;;;;;;;11.98;10.32;;;;;;;22.45;59.66;94598.44;5129957;27;20031;-78
2022/09/02 10:45:30;;;;;;;13.07;10.60;;;;;;;22.51;58.81;94599.44;5112952;28;20028;-79
2022/09/02 10:48:05;;;;;;;11.23;9.98;;;;;;;22.59;59.23;94603.72;5112434;27;20070;-79
2022/09/02 10:50:37;;;;;;;12.02;10.82;;;;;;;22.65;59.05;94601.06;5135221;27;20539;-79
2022/09/02 10:53:12;;;;;;;13.02;11.10;;;;;;;22.63;59.51;94597.00;5133889;27;20088;-79
2022/09/02 10:56:10;;;;;;;12.68;11.30;;;;;;;22.69;59.65;94604.91;5117209;27;20065;-79
2022/09/02 10:58:35;;;;;;;12.80;11.52;;;;;;;22.71;58.58;94604.72;5132846;27;20479;-78
2022/09/02 11:01:01;;;;;;;14.13;11.40;;;;;;;22.74;59.02;94599.81;5134979;27;20047;-79
2022/09/02 11:03:29;;;;;;;13.95;11.73;;;;;;;22.68;59.27;94590.06;5116783;27;20412;-78
2022/09/02 11:06:12;;;;;;;12.50;11.15;;;;;;;22.64;59.04;94582.75;5116948;27;20028;-78
2022/09/02 11:08:42;;;;;;;13.80;12.00;;;;;;;22.69;58.83;94591.69;5133740;27;20499;-78
2022/09/02 11:11:13;;;;;;;;;;;;;;;22.66;59.18;94588.66;5116930;27;20023;-78
2022/09/02 11:13:45;;;;;;;12.68;11.38;;;;;;;22.67;59.81;94583.13;5133514;27;20034;-78
2022/09/02 11:16:36;;;;;;;14.27;11.77;;;;;;;22.67;59.92;94579.66;5134703;27;20027;-78
2022/09/02 11:19:12;;;;;;;14.90;11.38;;;;;;;22.78;59.90;94580.88;5119186;27;20034;-79
2022/09/02 11:21:58;;;;;;;13.63;12.20;;;;;;;22.82;59.36;94574.97;5133781;27;20495;-79
2022/09/02 11:24:47;;;;;;;13.98;12.60;;;;;;;22.80;58.84;94581.47;5134949;27;20058;-79
2022/09/02 11:27:19;;;;;;;14.90;11.70;;;;;;;22.88;59.45;94575.97;5116752;27;20055;-79
2022/09/02 11:30:00;;;;;;;12.73;11.52;;;;;;;22.95;59.22;94577.56;5134388;27;20569;-79
2022/09/02 11:32:51;;;;;;;12.80;11.60;;;;;;;23.01;58.91;94573.28;5133201;27;20509;-79
2022/09/02 11:35:26;;;;;;;14.95;12.25;;;;;;;23.08;59.05;94574.06;5133150;27;20496;-79